Time;durP1;ratioP1;P1;durP2;ratioP2;P2;SDS_P1;SDS_P2;PMS_P1;PMS_P2;Temp;Humidity;BMP_temperature;BMP_pressure;BME280_temperature;BME280_humidity;BME280_pressure;Samples;Min_cycle;Max_cycle;Signal;HPM_P1;HPM_P2
2021/01/15 00:01:39;;;;;;;17.65;9.45;;;;;;;0.84;100.00;101793.72;4898940;29;20593;-76
2021/01/15 00:04:05;;;;;;;20.42;9.65;;;;;;;0.92;100.00;101790.56;4912164;29;20075;-75
2021/01/15 00:06:31;;;;;;;19.83;9.88;;;;;;;0.99;100.00;101787.66;4917824;29;20043;-75
2021/01/15 00:08:58;;;;;;;18.52;9.95;;;;;;;1.04;100.00;101783.16;4926176;29;20044;-75
2021/01/15 00:11:25;;;;;;;19.25;9.50;;;;;;;1.04;100.00;101783.16;4917619;29;20114;-75
2021/01/15 00:13:53;;;;;;;17.17;9.63;;;;;;;1.07;100.00;101779.97;4920685;29;20036;-75
2021/01/15 00:16:24;;;;;;;21.73;10.88;;;;;;;1.12;100.00;101785.28;4935972;28;20032;-75
2021/01/15 00:18:51;;;;;;;19.48;10.13;;;;;;;1.19;100.00;101783.16;4922557;29;20054;-76
2021/01/15 00:21:20;;;;;;;21.02;9.65;;;;;;;1.30;100.00;101779.44;4916310;29;20039;-76
2021/01/15 00:23:46;;;;;;;18.55;9.52;;;;;;;1.34;100.00;101777.88;4921974;29;20043;-76
2021/01/15 00:26:19;;;;;;;19.75;10.23;;;;;;;1.38;100.00;101781.59;4924526;29;20040;-75
2021/01/15 00:28:45;;;;;;;18.33;8.95;;;;;;;1.40;100.00;101783.97;4923789;29;20039;-76
2021/01/15 00:31:11;;;;;;;19.15;9.88;;;;;;;1.44;100.00;101785.84;4915538;29;20059;-75
2021/01/15 00:33:37;;;;;;;17.67;9.70;;;;;;;1.46;100.00;101772.28;4932447;29;20098;-76
2021/01/15 00:36:07;;;;;;;20.20;9.82;;;;;;;1.52;100.00;101765.94;4931915;29;20038;-76
2021/01/15 00:38:32;;;;;;;20.52;9.90;;;;;;;1.53;100.00;101770.97;4914066;29;20489;-76
2021/01/15 00:41:06;;;;;;;20.88;10.25;;;;;;;1.47;100.00;101774.66;4919742;29;20136;-76
2021/01/15 00:43:34;;;;;;;17.13;8.98;;;;;;;1.44;100.00;101766.47;4921706;29;20028;-76
2021/01/15 00:46:00;;;;;;;18.92;9.15;;;;;;;1.45;100.00;101763.53;4912931;29;20115;-76
2021/01/15 00:48:25;;;;;;;19.13;9.60;;;;;;;1.47;100.00;101765.94;4900864;29;20195;-75
2021/01/15 00:50:52;;;;;;;18.23;10.15;;;;;;;1.55;100.00;101760.88;4911643;29;20036;-76
2021/01/15 00:53:18;;;;;;;21.75;9.77;;;;;;;1.57;100.00;101764.06;4909454;29;20042;-75
2021/01/15 00:55:44;;;;;;;21.50;10.57;;;;;;;1.56;100.00;101759.81;4917618;29;20044;-75
2021/01/15 00:58:13;;;;;;;19.90;10.00;;;;;;;1.55;100.00;101760.88;4899774;29;20525;-76
2021/01/15 01:00:40;;;;;;;20.35;9.80;;;;;;;1.51;100.00;101759.81;4917680;29;20423;-76
2021/01/15 01:03:15;;;;;;;19.17;9.90;;;;;;;1.50;100.00;101768.84;4916325;29;20040;-76
2021/01/15 01:05:41;;;;;;;17.35;8.93;;;;;;;1.42;100.00;101776.53;4913565;29;20048;-75
2021/01/15 01:08:06;;;;;;;17.65;9.15;;;;;;;1.45;100.00;101774.16;4916429;29;20032;-76
2021/01/15 01:10:32;;;;;;;16.92;9.65;;;;;;;1.44;100.00;101779.72;4909069;29;20106;-75
2021/01/15 01:12:57;;;;;;;21.02;9.73;;;;;;;1.42;100.00;101780.00;4915253;29;20736;-75
2021/01/15 01:15:23;;;;;;;16.95;9.45;;;;;;;1.40;100.00;101786.63;4909440;29;20028;-76
2021/01/15 01:17:48;;;;;;;16.58;8.93;;;;;;;1.37;100.00;101793.28;4927978;29;20408;-75
2021/01/15 01:20:14;;;;;;;18.13;9.70;;;;;;;1.33;100.00;101786.09;4921309;29;20043;-76
2021/01/15 01:22:40;;;;;;;18.98;10.00;;;;;;;1.34;100.00;101790.31;4916084;29;20036;-76
2021/01/15 01:25:07;;;;;;;17.67;9.80;;;;;;;1.26;100.00;101796.19;4904860;29;20024;-75
2021/01/15 01:27:33;;;;;;;17.00;9.20;;;;;;;1.27;100.00;101787.97;4918423;29;20457;-76
2021/01/15 01:29:59;;;;;;;17.92;9.52;;;;;;;1.31;100.00;101791.66;4917581;29;20067;-76
2021/01/15 01:32:25;;;;;;;19.17;9.38;;;;;;;1.32;100.00;101793.25;4917241;29;20111;-75
2021/01/15 01:34:50;;;;;;;22.50;9.32;;;;;;;1.34;100.00;101800.94;4904413;29;20553;-76
2021/01/15 01:37:16;;;;;;;18.95;9.82;;;;;;;1.39;100.00;101799.09;4918343;29;20437;-76
2021/01/15 01:39:41;;;;;;;17.67;9.25;;;;;;;1.40;100.00;101795.38;4916156;29;20084;-75
2021/01/15 01:42:07;;;;;;;18.05;9.02;;;;;;;1.40;100.00;101797.22;4919977;29;20031;-76
2021/01/15 01:44:32;;;;;;;17.83;10.18;;;;;;;1.39;100.00;101796.44;4900721;29;20040;-76
2021/01/15 01:46:58;;;;;;;16.75;9.75;;;;;;;1.38;100.00;101808.13;4925281;29;20114;-75
2021/01/15 01:49:24;;;;;;;16.52;9.02;;;;;;;1.37;100.00;101800.44;4920816;29;20442;-77
2021/01/15 01:51:50;;;;;;;20.15;9.05;;;;;;;1.39;100.00;101796.44;4908229;29;20397;-75
2021/01/15 01:54:17;;;;;;;17.05;9.23;;;;;;;1.37;100.00;101803.06;4925873;29;20040;-77
2021/01/15 01:56:43;;;;;;;18.70;9.88;;;;;;;1.37;100.00;101803.06;4895979;29;20402;-77
2021/01/15 01:59:15;;;;;;;17.50;8.93;;;;;;;1.51;100.00;101807.56;4892946;29;20179;-75
2021/01/15 02:01:40;;;;;;;18.15;9.48;;;;;;;1.67;100.00;101809.19;4906675;29;20037;-76
2021/01/15 02:04:07;;;;;;;17.75;8.95;;;;;;;1.75;100.00;101805.97;4909267;29;20046;-76
2021/01/15 02:06:37;;;;;;;18.35;9.18;;;;;;;1.80;100.00;101813.94;4905592;29;20679;-75
2021/01/15 02:09:06;;;;;;;18.50;9.00;;;;;;;1.83;100.00;101821.38;4912174;29;20119;-76
2021/01/15 02:11:57;;;;;;;16.58;8.70;;;;;;;1.80;100.00;101805.19;4914046;29;20031;-76
2021/01/15 02:14:44;;;;;;;17.77;8.77;;;;;;;1.76;100.00;101820.84;4925079;29;20036;-75
2021/01/15 02:17:34;;;;;;;16.77;8.52;;;;;;;1.72;100.00;101819.78;4926863;29;20115;-75
2021/01/15 02:20:16;;;;;;;18.20;8.90;;;;;;;1.77;100.00;101811.81;4891666;29;20071;-76
2021/01/15 02:22:58;;;;;;;20.83;9.32;;;;;;;1.73;100.00;101809.97;4903883;29;20037;-75
2021/01/15 02:25:51;;;;;;;21.25;9.10;;;;;;;1.77;100.00;101806.50;4891696;29;20076;-76
2021/01/15 02:28:31;;;;;;;19.95;9.25;;;;;;;1.82;100.00;101811.81;4893461;29;20028;-76
2021/01/15 02:31:10;;;;;;;17.15;8.75;;;;;;;1.93;100.00;101817.13;4872429;29;20048;-75
2021/01/15 02:33:51;;;;;;;17.55;8.73;;;;;;;1.85;100.00;101810.50;4893101;29;20123;-76
2021/01/15 02:36:32;;;;;;;15.85;8.75;;;;;;;1.88;100.00;101811.81;4890804;29;20837;-76
2021/01/15 02:39:14;;;;;;;15.98;8.10;;;;;;;1.86;100.00;101812.06;4877350;29;20454;-76
2021/01/15 02:41:41;;;;;;;17.67;9.00;;;;;;;1.89;100.00;101824.03;4891148;29;20097;-76
2021/01/15 02:44:11;;;;;;;17.80;9.13;;;;;;;1.93;100.00;101830.38;4875597;29;20052;-75
2021/01/15 02:46:44;;;;;;;17.30;9.52;;;;;;;1.94;100.00;101826.66;4875613;29;20040;-76
2021/01/15 02:49:11;;;;;;;21.27;10.05;;;;;;;2.02;100.00;101832.22;4874798;29;20044;-76
2021/01/15 02:51:42;;;;;;;18.75;9.05;;;;;;;1.87;100.00;101820.84;4859551;29;20056;-75
2021/01/15 02:54:08;;;;;;;18.27;9.77;;;;;;;1.89;100.00;101826.66;4885730;29;20080;-76
2021/01/15 02:56:36;;;;;;;17.58;9.30;;;;;;;1.76;100.00;101834.09;4886336;29;20051;-77
2021/01/15 02:59:03;;;;;;;19.52;9.77;;;;;;;1.92;100.00;101826.16;4917896;29;20083;-76
2021/01/15 03:01:32;;;;;;;20.42;10.13;;;;;;;1.92;100.00;101834.91;4914822;29;20087;-76
2021/01/15 03:04:09;;;;;;;20.23;9.93;;;;;;;1.92;100.00;101834.13;4905233;29;20035;-76
2021/01/15 03:06:44;;;;;;;19.33;9.48;;;;;;;1.79;100.00;101838.09;4895366;29;20046;-76
2021/01/15 03:09:10;;;;;;;17.40;9.35;;;;;;;1.78;100.00;101834.63;4919826;29;20123;-76
2021/01/15 03:11:37;;;;;;;21.02;9.98;;;;;;;1.78;100.00;101834.63;4909364;29;20056;-77
2021/01/15 03:14:06;;;;;;;22.95;10.82;;;;;;;1.78;100.00;101836.53;4917908;29;20036;-77
2021/01/15 03:16:33;;;;;;;21.58;10.45;;;;;;;1.75;100.00;101845.81;4896962;29;20622;-76
2021/01/15 03:19:00;;;;;;;19.25;10.60;;;;;;;1.84;100.00;101852.16;4910180;29;20059;-77
2021/01/15 03:21:29;;;;;;;21.65;10.65;;;;;;;1.83;100.00;101839.97;4899366;29;20413;-77
2021/01/15 03:24:06;;;;;;;18.88;10.07;;;;;;;1.84;100.00;101844.19;4917886;29;20099;-76
2021/01/15 03:26:31;;;;;;;17.90;10.23;;;;;;;1.76;100.00;101847.38;4919788;29;20051;-76
2021/01/15 03:28:57;;;;;;;20.95;10.32;;;;;;;1.80;100.00;101848.44;4920045;29;20490;-76
2021/01/15 03:31:23;;;;;;;19.55;9.93;;;;;;;1.82;100.00;101848.97;4920917;29;20027;-76
2021/01/15 03:33:49;;;;;;;19.90;10.23;;;;;;;1.77;100.00;101853.50;4918286;29;20036;-77
2021/01/15 03:36:14;;;;;;;19.58;11.00;;;;;;;1.86;100.00;101851.13;4940314;28;20028;-76
2021/01/15 03:38:40;;;;;;;20.50;10.48;;;;;;;1.91;100.00;101851.09;4919021;29;20513;-76
2021/01/15 03:41:05;;;;;;;20.75;9.90;;;;;;;1.89;100.00;101858.53;4896879;29;20063;-77
2021/01/15 03:43:31;;;;;;;18.70;8.93;;;;;;;1.81;100.00;101855.38;4912442;29;20038;-76
2021/01/15 03:45:56;;;;;;;16.33;9.13;;;;;;;1.77;100.00;101850.84;4928567;29;20063;-77
2021/01/15 03:48:22;;;;;;;19.83;9.88;;;;;;;1.75;100.00;101850.31;4926145;29;20039;-76
2021/01/15 03:50:51;;;;;;;19.33;9.70;;;;;;;1.79;100.00;101862.78;4915140;29;20044;-76
2021/01/15 03:53:18;;;;;;;18.95;9.48;;;;;;;1.78;100.00;101858.53;4911720;29;20032;-77
2021/01/15 03:55:44;;;;;;;19.52;9.57;;;;;;;1.80;100.00;101850.31;4912631;29;20050;-77
2021/01/15 03:58:09;;;;;;;19.10;9.65;;;;;;;1.83;100.00;101853.25;4901541;29;20072;-77
2021/01/15 04:00:35;;;;;;;18.00;8.70;;;;;;;1.89;100.00;101854.03;4895878;29;20433;-76
2021/01/15 04:03:00;;;;;;;20.65;10.57;;;;;;;1.86;100.00;101851.13;4910368;29;20068;-76
2021/01/15 04:05:26;;;;;;;18.30;9.25;;;;;;;1.84;100.00;101851.34;4919210;29;20035;-76
2021/01/15 04:07:51;;;;;;;18.27;9.43;;;;;;;1.75;100.00;101850.31;4915933;29;20036;-76
2021/01/15 04:10:18;;;;;;;18.80;10.10;;;;;;;1.75;100.00;101847.66;4933497;29;20044;-77
2021/01/15 04:12:44;;;;;;;18.48;9.02;;;;;;;1.78;100.00;101850.56;4905354;29;20031;-76
2021/01/15 04:15:12;;;;;;;18.73;9.57;;;;;;;1.81;100.00;101844.75;4935171;29;20123;-76
2021/01/15 04:17:39;;;;;;;18.10;9.32;;;;;;;1.84;100.00;101857.47;4915910;29;20047;-76
2021/01/15 04:20:25;;;;;;;19.55;8.82;;;;;;;1.81;100.00;101860.66;4915297;29;20036;-75
2021/01/15 04:22:51;;;;;;;16.60;8.88;;;;;;;1.91;100.00;101851.09;4895674;29;20155;-76
2021/01/15 04:25:16;;;;;;;19.02;9.02;;;;;;;2.00;100.00;101858.25;4914332;29;20134;-76
2021/01/15 04:27:43;;;;;;;18.38;9.10;;;;;;;1.99;100.00;101861.19;4896073;29;20046;-77
2021/01/15 04:30:30;;;;;;;17.98;8.88;;;;;;;1.98;100.00;101854.28;4902268;29;20044;-76
2021/01/15 04:32:56;;;;;;;20.45;9.57;;;;;;;1.95;100.00;101854.81;4839252;29;20466;-76
2021/01/15 04:35:21;;;;;;;18.23;9.20;;;;;;;1.89;100.00;101851.38;4843734;29;20056;-76
2021/01/15 04:37:47;;;;;;;15.88;8.55;;;;;;;1.93;100.00;101852.44;4841104;29;20091;-76
2021/01/15 04:40:13;;;;;;;14.57;8.13;;;;;;;1.91;100.00;101851.09;4833504;29;20613;-75
2021/01/15 04:42:44;;;;;;;20.00;9.20;;;;;;;1.82;100.00;101851.63;4840057;29;20049;-77
2021/01/15 04:45:15;;;;;;;16.30;8.43;;;;;;;1.89;100.00;101855.88;4840691;29;20179;-77
2021/01/15 04:47:51;;;;;;;16.67;8.77;;;;;;;1.95;100.00;101849.50;4840294;29;20159;-76
2021/01/15 04:50:17;;;;;;;15.52;8.60;;;;;;;1.87;100.00;101855.34;4836853;29;20455;-75
2021/01/15 04:52:48;;;;;;;17.02;8.65;;;;;;;1.96;100.00;101857.19;4823172;29;20053;-76
2021/01/15 04:55:17;;;;;;;16.15;8.60;;;;;;;1.94;100.00;101859.31;4822966;29;20646;-77
2021/01/15 04:57:47;;;;;;;16.40;8.68;;;;;;;1.94;100.00;101855.88;4832396;29;20045;-76
2021/01/15 05:00:15;;;;;;;20.33;8.80;;;;;;;1.92;100.00;101864.09;4836390;29;20050;-76
2021/01/15 05:02:45;;;;;;;20.65;8.98;;;;;;;1.84;100.00;101867.28;4822498;29;20053;-76
2021/01/15 05:05:22;;;;;;;18.88;8.18;;;;;;;1.92;100.00;101863.31;4820036;29;20050;-75
2021/01/15 05:07:56;;;;;;;14.60;7.95;;;;;;;1.93;100.00;101857.75;4836717;29;20038;-77
2021/01/15 05:10:28;;;;;;;13.82;7.70;;;;;;;1.98;100.00;101871.00;4888725;29;20079;-77
2021/01/15 05:12:55;;;;;;;16.67;8.13;;;;;;;1.92;100.00;101876.59;4898898;29;20040;-75
2021/01/15 05:15:42;;;;;;;15.50;8.48;;;;;;;1.90;100.00;101871.53;4900443;29;20048;-76
2021/01/15 05:18:08;;;;;;;14.93;7.65;;;;;;;1.91;100.00;101869.69;4904120;29;20143;-76
2021/01/15 05:20:34;;;;;;;16.60;7.90;;;;;;;1.97;100.00;101873.94;4920882;29;20130;-76
2021/01/15 05:23:04;;;;;;;13.93;8.05;;;;;;;1.92;100.00;101881.91;4941981;29;20051;-76
2021/01/15 05:25:31;;;;;;;15.32;8.57;;;;;;;1.80;100.00;101871.56;4923138;29;20496;-76
2021/01/15 05:27:56;;;;;;;16.92;8.00;;;;;;;1.62;100.00;101874.72;4948189;29;20039;-77
2021/01/15 05:30:29;;;;;;;17.80;9.00;;;;;;;1.65;100.00;101882.16;4939791;29;20665;-76
2021/01/15 05:32:59;;;;;;;15.43;8.05;;;;;;;1.88;100.00;101880.84;4937471;29;20623;-79
2021/01/15 05:35:53;;;;;;;14.88;7.90;;;;;;;1.95;100.00;101892.78;4932936;29;20546;-76
2021/01/15 05:38:20;;;;;;;12.30;7.75;;;;;;;1.82;100.00;101891.47;4939270;29;20113;-76
2021/01/15 05:40:46;;;;;;;14.57;7.68;;;;;;;1.71;100.00;101892.53;4924163;29;20039;-76
2021/01/15 05:43:32;;;;;;;16.00;8.68;;;;;;;1.74;100.00;101896.50;4940902;29;20102;-77
2021/01/15 05:46:05;;;;;;;14.88;8.10;;;;;;;1.79;100.00;101899.97;4938557;28;20070;-76
2021/01/15 05:48:31;;;;;;;16.63;8.32;;;;;;;1.69;100.00;101886.69;4939053;29;20047;-75
2021/01/15 05:50:56;;;;;;;15.20;7.53;;;;;;;1.72;100.00;101890.69;4936211;29;20061;-78
2021/01/15 05:53:22;;;;;;;15.02;8.15;;;;;;;1.81;100.00;101900.50;4928056;29;20122;-76
2021/01/15 05:56:00;;;;;;;12.98;7.47;;;;;;;1.81;100.00;101903.16;4923376;29;20059;-76
2021/01/15 05:58:26;;;;;;;13.30;7.50;;;;;;;1.68;100.00;101897.56;4920918;29;20136;-76
2021/01/15 06:00:52;;;;;;;17.38;8.15;;;;;;;1.77;100.00;101906.59;4913564;29;20433;-76
2021/01/15 06:03:22;;;;;;;16.13;8.57;;;;;;;1.89;100.00;101904.47;4926803;29;20130;-77
2021/01/15 06:05:49;;;;;;;14.02;7.90;;;;;;;1.82;100.00;101915.34;4909221;29;20115;-77
2021/01/15 06:08:15;;;;;;;17.27;8.15;;;;;;;1.87;100.00;101917.22;4903779;29;20028;-76
2021/01/15 06:10:45;;;;;;;14.43;7.40;;;;;;;1.88;100.00;101915.38;4917841;29;20071;-77
2021/01/15 06:13:11;;;;;;;14.20;8.10;;;;;;;1.81;100.00;101916.44;4912437;29;20401;-75
2021/01/15 06:15:44;;;;;;;13.10;7.20;;;;;;;1.84;100.00;101920.38;4915099;29;20043;-76
2021/01/15 06:18:15;;;;;;;14.40;8.38;;;;;;;1.77;100.00;101917.22;4917854;29;20127;-76
2021/01/15 06:20:48;;;;;;;15.23;7.80;;;;;;;1.86;100.00;101920.16;4924021;29;20042;-76
2021/01/15 06:23:15;;;;;;;17.42;7.70;;;;;;;1.87;100.00;101916.41;4915500;29;20032;-76
2021/01/15 06:26:03;;;;;;;13.27;7.90;;;;;;;1.87;100.00;101922.53;4914372;29;20114;-75
2021/01/15 06:28:33;;;;;;;16.38;8.20;;;;;;;1.77;100.00;101918.00;4918362;29;20044;-76
2021/01/15 06:31:05;;;;;;;12.57;7.03;;;;;;;1.79;100.00;101918.53;4921911;29;20497;-77
2021/01/15 06:33:31;;;;;;;;;;;;;;;1.85;100.00;101927.31;4913734;29;20046;-76
2021/01/15 06:35:56;;;;;;;15.57;7.82;;;;;;;1.88;100.00;101931.31;4911131;29;19915;-78
2021/01/15 06:38:29;;;;;;;15.10;7.82;;;;;;;1.85;100.00;101940.59;4930817;29;20040;-76
2021/01/15 06:40:57;;;;;;;17.35;8.45;;;;;;;1.81;100.00;101929.69;4895723;29;20051;-77
2021/01/15 06:43:30;;;;;;;13.32;7.70;;;;;;;1.74;100.00;101923.84;4914160;29;20035;-75
2021/01/15 06:45:57;;;;;;;16.05;8.55;;;;;;;1.92;100.00;101937.69;4901451;29;20078;-75
2021/01/15 06:48:30;;;;;;;15.90;8.65;;;;;;;1.73;100.00;101942.69;4913527;29;21770;-75
2021/01/15 06:50:56;;;;;;;15.02;8.90;;;;;;;1.74;100.00;101937.09;4912064;29;20115;-76
2021/01/15 06:53:25;;;;;;;14.73;8.82;;;;;;;1.68;100.00;101940.03;4895814;29;20447;-74
2021/01/15 06:56:17;;;;;;;16.95;8.52;;;;;;;1.76;100.00;101948.25;4910391;29;20039;-76
2021/01/15 06:58:44;;;;;;;15.80;8.88;;;;;;;1.83;100.00;101938.19;4907145;29;20454;-76
2021/01/15 07:01:27;;;;;;;19.88;9.57;;;;;;;1.76;100.00;101942.94;4911356;29;20123;-74
2021/01/15 07:04:19;;;;;;;17.98;9.48;;;;;;;1.79;100.00;101945.09;4918292;29;20131;-76
2021/01/15 07:07:14;;;;;;;18.05;9.30;;;;;;;1.69;100.00;101953.03;4899323;29;20111;-76
2021/01/15 07:09:46;;;;;;;16.98;9.20;;;;;;;1.76;100.00;101953.56;4919079;29;20052;-76
2021/01/15 07:12:16;;;;;;;17.52;8.57;;;;;;;1.80;100.00;101945.91;4914799;29;20028;-76
2021/01/15 07:14:56;;;;;;;16.02;8.77;;;;;;;1.70;100.00;101946.66;4918673;29;20055;-74
2021/01/15 07:17:30;;;;;;;16.15;9.32;;;;;;;1.74;100.00;101950.38;4912941;29;20036;-76
2021/01/15 07:20:09;;;;;;;19.80;9.63;;;;;;;1.75;100.00;101957.31;4903578;29;20131;-75
2021/01/15 07:22:59;;;;;;;18.40;9.88;;;;;;;1.71;100.00;101958.88;4896175;29;20040;-76
2021/01/15 07:25:25;;;;;;;18.13;9.77;;;;;;;1.72;100.00;101962.34;4904965;29;20039;-76
2021/01/15 07:27:51;;;;;;;15.13;8.82;;;;;;;1.71;100.00;101961.53;4914735;29;20028;-76
2021/01/15 07:30:23;;;;;;;16.83;9.13;;;;;;;1.70;100.00;101965.25;4911802;29;20052;-76
2021/01/15 07:32:50;;;;;;;16.08;8.95;;;;;;;1.77;100.00;101971.09;4913517;29;20032;-76
2021/01/15 07:35:18;;;;;;;18.42;9.27;;;;;;;1.73;100.00;101974.53;4915560;29;20058;-75
2021/01/15 07:37:44;;;;;;;20.08;9.63;;;;;;;1.72;100.00;101986.25;4913945;29;20065;-75
2021/01/15 07:40:15;;;;;;;19.05;9.20;;;;;;;1.72;100.00;101980.94;4914908;29;20039;-76
2021/01/15 07:42:59;;;;;;;19.00;9.55;;;;;;;1.64;100.00;101984.91;4905882;29;20036;-76
2021/01/15 07:45:27;;;;;;;16.25;9.07;;;;;;;1.72;100.00;101994.97;4913641;29;20052;-76
2021/01/15 07:48:13;;;;;;;18.80;9.93;;;;;;;1.75;100.00;101991.00;4931941;29;20036;-77
2021/01/15 07:50:44;;;;;;;17.92;9.23;;;;;;;1.75;100.00;101999.78;4917191;29;20043;-76
2021/01/15 07:53:12;;;;;;;18.40;8.95;;;;;;;1.78;100.00;101999.25;4916414;29;20071;-77
2021/01/15 07:55:45;;;;;;;18.60;9.55;;;;;;;1.72;100.00;102007.47;4907581;29;20099;-76
2021/01/15 07:58:11;;;;;;;16.77;9.23;;;;;;;1.62;100.00;102005.59;4910710;29;20159;-76
2021/01/15 08:00:37;;;;;;;18.02;9.40;;;;;;;1.69;100.00;102006.13;4917988;29;20115;-75
2021/01/15 08:03:03;;;;;;;18.08;9.43;;;;;;;1.72;100.00;102007.47;4922032;29;20122;-75
2021/01/15 08:05:29;;;;;;;18.98;9.95;;;;;;;1.80;100.00;102014.94;4903246;29;20032;-76
2021/01/15 08:08:09;;;;;;;19.08;10.02;;;;;;;1.77;100.00;102007.47;4914949;29;20084;-75
2021/01/15 08:10:50;;;;;;;18.77;9.77;;;;;;;1.74;100.00;102010.66;4912790;29;20131;-75
2021/01/15 08:13:27;;;;;;;25.77;10.60;;;;;;;1.67;100.00;102008.25;4919984;29;20035;-77
2021/01/15 08:15:56;;;;;;;19.45;10.75;;;;;;;1.73;100.00;102007.19;4914654;29;20095;-77
2021/01/15 08:18:25;;;;;;;18.63;10.02;;;;;;;1.63;100.00;102007.16;4918134;29;20156;-76
2021/01/15 08:20:54;;;;;;;20.50;10.32;;;;;;;1.69;100.00;102014.09;4910951;29;20032;-76
2021/01/15 08:23:23;;;;;;;20.55;9.93;;;;;;;1.66;100.00;102016.47;4909290;29;20075;-75
2021/01/15 08:25:51;;;;;;;19.67;10.07;;;;;;;1.70;100.00;102006.94;4914349;29;20071;-76
2021/01/15 08:28:17;;;;;;;24.55;10.13;;;;;;;1.71;100.00;102017.28;4901051;29;20036;-76
2021/01/15 08:30:57;;;;;;;20.65;10.52;;;;;;;1.71;100.00;102009.31;4916326;29;20505;-75
2021/01/15 08:33:23;;;;;;;20.80;10.32;;;;;;;1.73;100.00;102012.50;4907847;29;20647;-76
2021/01/15 08:35:59;;;;;;;23.05;10.60;;;;;;;1.73;100.00;102017.03;4921273;29;20036;-76
2021/01/15 08:38:29;;;;;;;21.67;9.85;;;;;;;1.69;100.00;102019.41;4910730;29;20032;-75
2021/01/15 08:40:56;;;;;;;21.75;10.18;;;;;;;1.74;100.00;102014.09;4908925;29;20047;-75
2021/01/15 08:43:24;;;;;;;18.63;9.90;;;;;;;1.71;100.00;102019.94;4892640;29;20040;-77
2021/01/15 08:45:50;;;;;;;18.60;10.07;;;;;;;1.63;100.00;102028.41;4914516;29;20040;-76
2021/01/15 08:48:16;;;;;;;19.55;10.15;;;;;;;1.62;100.00;102024.16;4929588;29;20043;-77
2021/01/15 08:50:42;;;;;;;20.80;9.90;;;;;;;1.65;100.00;102023.63;4895504;29;20039;-77
2021/01/15 08:53:10;;;;;;;18.95;9.95;;;;;;;1.66;100.00;102027.91;4912168;29;20036;-75
2021/01/15 08:55:37;;;;;;;20.20;10.05;;;;;;;1.63;100.00;102031.06;4912397;29;20048;-77
2021/01/15 08:58:06;;;;;;;19.58;9.75;;;;;;;1.58;100.00;102040.88;4913623;29;20043;-77
2021/01/15 09:00:35;;;;;;;19.48;10.20;;;;;;;1.57;100.00;102034.75;4895448;29;20490;-76
2021/01/15 09:03:05;;;;;;;20.60;10.48;;;;;;;1.63;100.00;102046.97;4913668;29;20032;-76
2021/01/15 09:05:32;;;;;;;18.80;9.20;;;;;;;1.59;100.00;102043.25;4907334;29;20064;-75
2021/01/15 09:08:02;;;;;;;20.73;10.40;;;;;;;1.63;100.00;102044.34;4918383;29;20040;-76
2021/01/15 09:10:29;;;;;;;19.63;10.20;;;;;;;1.59;100.00;102042.44;4914896;29;20091;-76
2021/01/15 09:13:02;;;;;;;23.48;10.52;;;;;;;1.55;100.00;102052.78;4892487;29;20036;-76
2021/01/15 09:15:29;;;;;;;21.27;10.30;;;;;;;1.56;100.00;102050.94;4915003;29;20040;-76
2021/01/15 09:17:55;;;;;;;18.10;9.88;;;;;;;1.62;100.00;102053.38;4898037;29;20153;-75
2021/01/15 09:20:24;;;;;;;20.00;10.07;;;;;;;1.59;100.00;102059.19;4898494;29;20036;-74
2021/01/15 09:22:51;;;;;;;19.98;9.55;;;;;;;1.61;100.00;102056.25;4934269;29;20035;-75
2021/01/15 09:25:18;;;;;;;20.65;10.10;;;;;;;1.58;100.00;102057.59;4901893;29;20044;-78
2021/01/15 09:27:45;;;;;;;19.77;10.10;;;;;;;1.62;100.00;102063.97;4902510;29;20115;-76
2021/01/15 09:30:12;;;;;;;24.25;10.55;;;;;;;1.56;100.00;102065.00;4909680;29;20130;-74
2021/01/15 09:32:45;;;;;;;20.95;10.35;;;;;;;1.62;100.00;102068.47;4920252;29;20470;-75
2021/01/15 09:35:13;;;;;;;21.42;9.80;;;;;;;1.63;100.00;102076.19;4903943;29;20187;-75
2021/01/15 09:37:42;;;;;;;19.88;10.10;;;;;;;1.63;100.00;102070.88;4907899;29;20107;-75
2021/01/15 09:40:11;;;;;;;20.30;9.60;;;;;;;1.66;100.00;102077.53;4905028;29;20128;-77
2021/01/15 09:42:37;;;;;;;17.65;9.75;;;;;;;1.59;100.00;102079.59;4913362;29;20051;-76
2021/01/15 09:45:05;;;;;;;19.95;9.70;;;;;;;1.54;100.00;102076.94;4909149;29;20036;-76
2021/01/15 09:47:31;;;;;;;19.98;9.80;;;;;;;1.46;100.00;102086.19;4907033;29;20123;-76
2021/01/15 09:49:57;;;;;;;19.50;9.98;;;;;;;1.60;100.00;102079.38;4915554;29;20113;-76
2021/01/15 09:52:23;;;;;;;20.55;9.77;;;;;;;1.59;100.00;102085.72;4906976;29;20115;-76
2021/01/15 09:54:48;;;;;;;21.73;10.35;;;;;;;1.66;100.00;102088.16;4907604;29;20047;-75
2021/01/15 09:57:14;;;;;;;18.05;9.68;;;;;;;1.63;100.00;102086.00;4913377;29;20399;-76
2021/01/15 09:59:39;;;;;;;19.10;10.18;;;;;;;1.57;100.00;102087.84;4909081;29;20674;-76
2021/01/15 10:02:06;;;;;;;23.15;10.43;;;;;;;1.62;100.00;102098.47;4913604;29;20039;-76
2021/01/15 10:04:32;;;;;;;22.27;10.43;;;;;;;1.64;100.00;102091.06;4908947;29;20066;-76
2021/01/15 10:07:23;;;;;;;18.10;9.68;;;;;;;1.79;100.00;102095.63;4914045;29;20410;-76
2021/01/15 10:09:49;;;;;;;18.45;9.50;;;;;;;1.70;100.00;102090.00;4908918;29;20040;-77
2021/01/15 10:12:16;;;;;;;22.88;10.18;;;;;;;1.66;100.00;102110.19;4904155;29;20383;-77
2021/01/15 10:14:42;;;;;;;18.65;9.38;;;;;;;1.76;100.00;102098.81;4920840;29;20032;-76
2021/01/15 10:17:07;;;;;;;18.45;9.02;;;;;;;1.83;100.00;102096.69;4908729;29;20079;-76
2021/01/15 10:19:36;;;;;;;18.98;9.70;;;;;;;1.71;100.00;102104.06;4911797;29;20051;-76
2021/01/15 10:22:01;;;;;;;21.20;9.63;;;;;;;1.74;100.00;102099.03;4892773;29;20048;-77
2021/01/15 10:24:27;;;;;;;17.63;9.18;;;;;;;1.66;100.00;102109.38;4906143;29;20040;-75
2021/01/15 10:26:53;;;;;;;20.80;9.23;;;;;;;1.66;100.00;102109.38;4906757;29;20063;-76
2021/01/15 10:29:18;;;;;;;17.15;9.02;;;;;;;1.63;100.00;102110.69;4907277;29;20099;-77
2021/01/15 10:31:50;;;;;;;22.67;10.27;;;;;;;1.67;100.00;102108.31;4915417;29;20084;-77
2021/01/15 10:34:16;;;;;;;18.95;9.45;;;;;;;1.66;100.00;102107.53;4915829;29;20039;-76
2021/01/15 10:36:42;;;;;;;20.48;10.10;;;;;;;1.55;100.00;102108.53;4890889;29;20079;-74
2021/01/15 10:39:29;;;;;;;19.50;9.48;;;;;;;1.60;100.00;102105.91;4910739;29;20039;-77
2021/01/15 10:41:55;;;;;;;20.25;8.80;;;;;;;1.62;100.00;102119.72;4873527;29;20139;-76
2021/01/15 10:44:21;;;;;;;17.92;9.48;;;;;;;1.60;100.00;102103.25;4857031;29;20131;-76
2021/01/15 10:46:50;;;;;;;17.85;9.70;;;;;;;1.67;100.00;102108.31;4871161;29;20467;-76
2021/01/15 10:49:18;;;;;;;17.10;9.15;;;;;;;1.69;100.00;102117.63;4874132;29;20038;-76
2021/01/15 10:51:45;;;;;;;17.67;9.07;;;;;;;1.64;100.00;102117.59;4869352;29;20388;-76
2021/01/15 10:54:11;;;;;;;17.45;8.82;;;;;;;1.62;100.00;102111.75;4857485;29;20530;-76
2021/01/15 10:56:47;;;;;;;18.98;9.55;;;;;;;1.65;100.00;102108.56;4865215;29;20048;-76
2021/01/15 10:59:13;;;;;;;17.35;8.52;;;;;;;1.78;100.00;102102.78;4857702;29;20615;-76
2021/01/15 11:01:40;;;;;;;17.88;8.50;;;;;;;1.69;100.00;102107.00;4870950;29;20040;-76
2021/01/15 11:04:07;;;;;;;18.25;9.38;;;;;;;1.60;100.00;102113.06;4867162;29;20064;-76
2021/01/15 11:06:40;;;;;;;16.27;8.63;;;;;;;1.58;100.00;102115.19;4866037;29;20490;-76
2021/01/15 11:09:07;;;;;;;18.83;9.05;;;;;;;1.64;100.00;102108.84;4837452;29;20086;-77
2021/01/15 11:11:32;;;;;;;17.60;9.02;;;;;;;1.64;100.00;102104.34;4852323;29;20097;-75
2021/01/15 11:13:59;;;;;;;16.98;8.35;;;;;;;1.64;100.00;102114.94;4858897;29;20044;-76
2021/01/15 11:16:25;;;;;;;16.83;8.60;;;;;;;1.82;100.00;102103.84;4862473;29;20490;-76
2021/01/15 11:18:51;;;;;;;16.95;8.50;;;;;;;1.71;100.00;102110.19;4870289;29;20727;-76
2021/01/15 11:21:27;;;;;;;17.58;9.05;;;;;;;1.67;100.00;102108.31;4919984;29;20485;-76
2021/01/15 11:23:53;;;;;;;18.50;8.52;;;;;;;1.72;100.00;102101.16;4917052;29;20430;-76
2021/01/15 11:26:28;;;;;;;16.60;8.35;;;;;;;1.63;100.00;102100.06;4918529;29;20048;-76
2021/01/15 11:29:00;;;;;;;16.75;8.82;;;;;;;1.62;100.00;102100.34;4917550;29;20064;-77